Time,TemperatureF,DewpointF,PressureIn,WindDirection,WindDirectionDegrees,WindSpeedMPH,WindSpeedGustMPH,Humidity,HourlyPrecipIn,Conditions,Clouds,dailyrainin,SolarRadiationWatts/m^2,SoftwareType,DateUTC
2013-03-18 00:00:00,45.2,38.0,29.97,SE,144,2.0,2.0,76,0.00,,,0.00,0,weatherlink.com 1.10,2013-03-18 07:00:00,
2013-03-18 00:15:00,44.8,38.0,29.98,SE,144,3.0,3.0,77,0.00,,,0.00,0,weatherlink.com 1.10,2013-03-18 07:15:00,
2013-03-18 00:45:00,44.2,38.0,29.97,SE,143,3.0,3.0,78,0.00,,,0.00,0,weatherlink.com 1.10,2013-03-18 07:45:00,
2013-03-18 01:00:00,44.1,38.0,29.96,SE,136,1.0,3.0,78,0.00,,,0.00,0,weatherlink.com 1.10,2013-03-18 08:00:00,
2013-03-18 01:15:00,44.3,38.0,29.96,SSE,154,1.0,4.0,79,0.00,,,0.00,0,weatherlink.com 1.10,2013-03-18 08:15:00,
2013-03-18 01:30:00,43.9,38.0,29.96,SSE,154,1.0,3.0,79,0.00,,,0.00,0,weatherlink.com 1.10,2013-03-18 08:30:00,
2013-03-18 01:45:00,43.1,37.0,29.97,SSE,148,1.0,3.0,80,0.00,,,0.00,0,weatherlink.com 1.10,2013-03-18 08:45:00,
2013-03-18 02:00:00,43.1,37.0,29.97,SSE,148,1.0,2.0,80,0.00,,,0.00,0,weatherlink.com 1.10,2013-03-18 09:00:00,
2013-03-18 02:15:00,42.5,37.0,29.98,SSE,148,2.0,3.0,82,0.00,,,0.00,0,weatherlink.com 1.10,2013-03-18 09:15:00,
2013-03-18 02:30:00,41.8,37.0,29.97,SSE,148,3.0,3.0,83,0.00,,,0.00,0,weatherlink.com 1.10,2013-03-18 09:30:00,
2013-03-18 02:45:00,42.3,37.0,29.97,SE,139,2.0,3.0,82,0.00,,,0.00,0,weatherlink.com 1.10,2013-03-18 09:45:00,
2013-03-18 03:00:00,42.5,37.0,29.96,SE,139,2.0,3.0,82,0.00,,,0.00,0,weatherlink.com 1.10,2013-03-18 10:00:00,
2013-03-18 03:15:00,42.6,37.0,29.96,SE,139,3.0,3.0,81,0.00,,,0.00,0,weatherlink.com 1.10,2013-03-18 10:15:00,
2013-03-18 03:30:00,41.9,37.0,29.96,SE,139,1.0,2.0,82,0.00,,,0.00,0,weatherlink.com 1.10,2013-03-18 10:30:00,
2013-03-18 03:45:00,41.6,37.0,29.95,SE,139,2.0,3.0,83,0.00,,,0.00,0,weatherlink.com 1.10,2013-03-18 10:45:00,
2013-03-18 04:00:00,41.9,37.0,29.95,SE,139,2.0,3.0,83,0.00,,,0.00,0,weatherlink.com 1.10,2013-03-18 11:00:00,
2013-03-18 04:16:00,41.9,37.0,29.94,SE,139,2.0,3.0,83,0.00,,,0.00,0,weatherlink.com 1.10,2013-03-18 11:16:00,
2013-03-18 04:31:00,42.3,38.0,29.94,SE,139,2.0,3.0,83,0.00,,,0.00,0,weatherlink.com 1.10,2013-03-18 11:31:00,
2013-03-18 04:46:00,41.8,37.0,29.94,SE,139,0.0,1.0,83,0.00,,,0.00,0,weatherlink.com 1.10,2013-03-18 11:46:00,
2013-03-18 05:01:00,40.6,37.0,29.94,SE,139,2.0,3.0,85,0.00,,,0.00,0,weatherlink.com 1.10,2013-03-18 12:01:00,
2013-03-18 05:31:00,40.0,37.0,29.94,SE,139,2.0,2.0,88,0.00,,,0.00,0,weatherlink.com 1.10,2013-03-18 12:31:00,
2013-03-18 06:46:00,40.9,37.0,29.96,SE,137,0.0,2.0,87,0.00,,,0.00,0,weatherlink.com 1.10,2013-03-18 13:46:00,
2013-03-18 07:16:00,40.5,37.0,29.96,SE,137,2.0,3.0,88,0.00,,,0.00,0,weatherlink.com 1.10,2013-03-18 14:16:00,
2013-03-18 07:46:00,42.0,38.0,29.97,SE,137,1.0,3.0,87,0.00,,,0.00,42,weatherlink.com 1.10,2013-03-18 14:46:00,
2013-03-18 08:01:00,42.2,39.0,29.98,SE,137,0.0,0.0,87,0.00,,,0.00,63,weatherlink.com 1.10,2013-03-18 15:01:00,
2013-03-18 08:16:00,42.8,40.0,29.98,SE,137,0.0,1.0,88,0.00,,,0.00,76,weatherlink.com 1.10,2013-03-18 15:16:00,
2013-03-18 08:31:00,44.2,41.0,29.98,ESE,113,1.0,2.0,88,0.00,,,0.00,153,weatherlink.com 1.10,2013-03-18 15:31:00,
2013-03-18 08:46:00,45.5,41.0,29.98,ENE,63,0.0,2.0,83,0.00,,,0.00,171,weatherlink.com 1.10,2013-03-18 15:46:00,
2013-03-18 09:01:00,47.8,43.0,29.98,North,11,1.0,2.0,84,0.00,,,0.00,265,weatherlink.com 1.10,2013-03-18 16:01:00,
2013-03-18 09:16:00,50.8,45.0,30.00,NW,315,1.0,2.0,79,0.00,,,0.00,350,weatherlink.com 1.10,2013-03-18 16:16:00,
2013-03-18 09:31:00,51.8,43.0,29.99,NNE,24,1.0,3.0,72,0.00,,,0.00,362,weatherlink.com 1.10,2013-03-18 16:31:00,
2013-03-18 09:46:00,53.0,45.0,29.99,NW,321,1.0,3.0,75,0.00,,,0.00,330,weatherlink.com 1.10,2013-03-18 16:46:00,
2013-03-18 10:02:00,55.6,45.0,29.99,NW,314,2.0,4.0,67,0.00,,,0.00,320,weatherlink.com 1.10,2013-03-18 17:02:00,
2013-03-18 10:17:00,55.9,45.0,29.99,West,274,3.0,4.0,66,0.00,,,0.00,371,weatherlink.com 1.10,2013-03-18 17:17:00,
2013-03-18 10:32:00,56.3,45.0,30.00,NNW,329,1.0,3.0,66,0.00,,,0.00,482,weatherlink.com 1.10,2013-03-18 17:32:00,
2013-03-18 10:47:00,57.0,45.0,30.00,North,350,1.0,4.0,64,0.00,,,0.00,534,weatherlink.com 1.10,2013-03-18 17:47:00,
2013-03-18 11:17:00,60.2,47.0,30.00,NW,325,3.0,4.0,61,0.00,,,0.00,436,weatherlink.com 1.10,2013-03-18 18:17:00,
2013-03-18 11:32:00,61.5,48.0,29.99,North,355,4.0,5.0,61,0.00,,,0.00,543,weatherlink.com 1.10,2013-03-18 18:32:00,
2013-03-18 11:47:00,63.9,49.0,29.99,SW,223,0.0,6.0,58,0.00,,,0.00,744,weatherlink.com 1.10,2013-03-18 18:47:00,
2013-03-18 12:02:00,65.0,48.0,29.99,WNW,301,4.0,6.0,54,0.00,,,0.00,591,weatherlink.com 1.10,2013-03-18 19:02:00,
2013-03-18 12:17:00,65.7,48.0,29.99,WNW,284,1.0,8.0,54,0.00,,,0.00,557,weatherlink.com 1.10,2013-03-18 19:17:00,
2013-03-18 12:32:00,65.8,48.0,29.98,West,259,3.0,7.0,52,0.00,,,0.00,564,weatherlink.com 1.10,2013-03-18 19:32:00,
2013-03-18 12:48:00,66.2,47.0,29.98,WNW,284,6.0,7.0,51,0.00,,,0.00,510,weatherlink.com 1.10,2013-03-18 19:48:00,
2013-03-18 13:02:00,66.1,47.0,29.98,WSW,254,2.0,8.0,50,0.00,,,0.00,471,weatherlink.com 1.10,2013-03-18 20:02:00,
2013-03-18 13:17:00,65.7,46.0,29.98,WSW,252,3.0,8.0,49,0.00,,,0.00,599,weatherlink.com 1.10,2013-03-18 20:17:00,
2013-03-18 13:32:00,65.9,48.0,29.97,WNW,295,3.0,6.0,53,0.00,,,0.00,606,weatherlink.com 1.10,2013-03-18 20:32:00,
2013-03-18 13:47:00,66.8,47.0,29.96,West,261,2.0,8.0,50,0.00,,,0.00,573,weatherlink.com 1.10,2013-03-18 20:47:00,
2013-03-18 14:02:00,68.0,45.0,29.96,West,263,3.0,7.0,44,0.00,,,0.00,571,weatherlink.com 1.10,2013-03-18 21:02:00,
2013-03-18 14:17:00,68.2,49.0,29.95,West,269,2.0,5.0,50,0.00,,,0.00,594,weatherlink.com 1.10,2013-03-18 21:17:00,
2013-03-18 14:32:00,68.5,43.0,29.94,WNW,288,2.0,5.0,40,0.00,,,0.00,534,weatherlink.com 1.10,2013-03-18 21:32:00,
2013-03-18 14:48:00,68.4,42.0,29.94,West,271,4.0,6.0,39,0.00,,,0.00,598,weatherlink.com 1.10,2013-03-18 21:48:00,
2013-03-18 15:02:00,68.6,44.0,29.94,West,271,4.0,8.0,42,0.00,,,0.00,350,weatherlink.com 1.10,2013-03-18 22:02:00,
2013-03-18 15:17:00,67.7,44.0,29.94,WNW,301,3.0,8.0,42,0.00,,,0.00,264,weatherlink.com 1.10,2013-03-18 22:17:00,
2013-03-18 15:47:00,65.8,43.0,29.94,West,265,4.0,5.0,44,0.00,,,0.00,232,weatherlink.com 1.10,2013-03-18 22:47:00,
2013-03-18 16:02:00,65.4,43.0,29.93,WNW,285,2.0,6.0,44,0.00,,,0.00,246,weatherlink.com 1.10,2013-03-18 23:02:00,
2013-03-18 16:18:00,65.4,44.0,29.94,WSW,244,1.0,6.0,46,0.00,,,0.00,236,weatherlink.com 1.10,2013-03-18 23:18:00,
2013-03-18 16:33:00,65.6,44.0,29.93,SSW,198,3.0,6.0,45,0.00,,,0.00,265,weatherlink.com 1.10,2013-03-18 23:33:00,
2013-03-18 16:48:00,65.6,44.0,29.93,West,276,3.0,5.0,45,0.00,,,0.00,220,weatherlink.com 1.10,2013-03-18 23:48:00,
2013-03-18 17:03:00,65.2,45.0,29.93,WSW,242,2.0,5.0,48,0.00,,,0.00,183,weatherlink.com 1.10,2013-03-19 00:03:00,
2013-03-18 17:18:00,64.4,44.0,29.93,South,182,1.0,4.0,48,0.00,,,0.00,135,weatherlink.com 1.10,2013-03-19 00:18:00,
2013-03-18 17:33:00,63.2,45.0,29.92,WSW,250,0.0,4.0,52,0.00,,,0.00,121,weatherlink.com 1.10,2013-03-19 00:33:00,
2013-03-18 17:48:00,63.1,44.0,29.92,SW,227,2.0,4.0,51,0.00,,,0.00,104,weatherlink.com 1.10,2013-03-19 00:48:00,
2013-03-18 18:03:00,62.8,45.0,29.91,West,260,0.0,2.0,52,0.00,,,0.00,120,weatherlink.com 1.10,2013-03-19 01:03:00,
2013-03-18 18:18:00,62.7,45.0,29.92,WSW,244,4.0,4.0,53,0.00,,,0.00,93,weatherlink.com 1.10,2013-03-19 01:18:00,
2013-03-18 18:33:00,62.1,45.0,29.93,WSW,257,0.0,4.0,54,0.00,,,0.00,46,weatherlink.com 1.10,2013-03-19 01:33:00,
2013-03-18 18:48:00,60.9,44.0,29.93,SW,222,1.0,4.0,54,0.00,,,0.00,25,weatherlink.com 1.10,2013-03-19 01:48:00,
2013-03-18 19:03:00,59.8,42.0,29.94,West,263,1.0,3.0,53,0.00,,,0.00,12,weatherlink.com 1.10,2013-03-19 02:03:00,
2013-03-18 19:18:00,57.8,42.0,29.94,SW,226,0.0,2.0,55,0.00,,,0.00,0,weatherlink.com 1.10,2013-03-19 02:18:00,
2013-03-18 19:33:00,57.2,43.0,29.94,North,349,0.0,3.0,59,0.00,,,0.00,0,weatherlink.com 1.10,2013-03-19 02:33:00,
2013-03-18 19:48:00,56.6,42.0,29.94,NE,41,1.0,2.0,58,0.00,,,0.00,0,weatherlink.com 1.10,2013-03-19 02:48:00,
2013-03-18 20:03:00,55.9,42.0,29.95,NE,49,1.0,2.0,61,0.00,,,0.00,0,weatherlink.com 1.10,2013-03-19 03:03:00,
2013-03-18 20:33:00,54.8,42.0,29.96,ESE,115,1.0,2.0,62,0.00,,,0.00,0,weatherlink.com 1.10,2013-03-19 03:33:00,
2013-03-18 20:48:00,54.2,41.0,29.96,SSE,168,1.0,3.0,61,0.00,,,0.00,0,weatherlink.com 1.10,2013-03-19 03:48:00,
2013-03-18 21:03:00,54.4,42.0,29.97,SSE,152,1.0,4.0,64,0.00,,,0.00,0,weatherlink.com 1.10,2013-03-19 04:03:00,
2013-03-18 21:18:00,53.9,43.0,29.98,SSE,159,3.0,5.0,67,0.00,,,0.00,0,weatherlink.com 1.10,2013-03-19 04:18:00,
2013-03-18 21:33:00,53.7,43.0,29.98,SSE,147,1.0,4.0,67,0.00,,,0.00,0,weatherlink.com 1.10,2013-03-19 04:33:00,
2013-03-18 21:48:00,53.2,44.0,29.99,SSE,147,0.0,1.0,70,0.00,,,0.00,0,weatherlink.com 1.10,2013-03-19 04:48:00,
2013-03-18 22:03:00,52.5,44.0,29.99,SSE,147,1.0,2.0,73,0.00,,,0.00,0,weatherlink.com 1.10,2013-03-19 05:03:00,
2013-03-18 22:18:00,52.2,44.0,30.00,SSE,149,1.0,3.0,74,0.00,,,0.00,0,weatherlink.com 1.10,2013-03-19 05:18:00,
2013-03-18 22:33:00,52.2,44.0,30.00,WSW,244,1.0,3.0,73,0.00,,,0.00,0,weatherlink.com 1.10,2013-03-19 05:33:00,
2013-03-18 22:48:00,51.8,44.0,30.01,SW,224,0.0,2.0,76,0.00,,,0.00,0,weatherlink.com 1.10,2013-03-19 05:48:00,
2013-03-18 23:03:00,51.1,44.0,30.01,South,189,0.0,2.0,76,0.00,,,0.00,0,weatherlink.com 1.10,2013-03-19 06:03:00,
2013-03-18 23:18:00,51.2,44.0,30.00,SE,144,1.0,3.0,75,0.00,,,0.00,0,weatherlink.com 1.10,2013-03-19 06:18:00,
2013-03-18 23:33:00,51.2,43.0,29.99,SE,124,2.0,3.0,73,0.00,,,0.00,0,weatherlink.com 1.10,2013-03-19 06:33:00,
2013-03-18 23:48:00,50.6,43.0,29.98,ESE,123,2.0,2.0,74,0.00,,,0.00,0,weatherlink.com 1.10,2013-03-19 06:48:00,